Time;durP1;ratioP1;P1;durP2;ratioP2;P2;SDS_P1;SDS_P2;PMS_P1;PMS_P2;Temp;Humidity;BMP_temperature;BMP_pressure;BME280_temperature;BME280_humidity;BME280_pressure;Samples;Min_cycle;Max_cycle;Signal;HPM_P1;HPM_P2
2022/06/06 00:00:52;;;;;;;3.17;2.47;;;;;;;19.11;66.51;96221.81;5114657;28;20023;-64
2022/06/06 00:03:19;;;;;;;3.50;2.60;;;;;;;19.07;66.39;96228.31;5114701;28;20563;-63
2022/06/06 00:05:47;;;;;;;6.68;2.85;;;;;;;19.05;66.45;96233.72;5114511;28;20023;-62
2022/06/06 00:08:15;;;;;;;5.72;2.60;;;;;;;19.01;66.26;96231.41;5114440;28;20032;-62
2022/06/06 00:10:46;;;;;;;4.63;2.90;;;;;;;18.83;66.40;96226.59;5113863;28;20026;-65
2022/06/06 00:13:14;;;;;;;5.70;2.45;;;;;;;18.68;67.30;96224.16;5114547;28;20426;-63
2022/06/06 00:15:40;;;;;;;3.70;3.20;;;;;;;18.58;67.30;96225.81;5114452;28;20118;-64
2022/06/06 00:18:06;;;;;;;6.70;2.70;;;;;;;18.54;67.54;96227.84;5114429;28;20491;-66
2022/06/06 00:20:32;;;;;;;6.35;3.10;;;;;;;18.53;68.04;96226.16;5114169;28;20029;-63
2022/06/06 00:22:59;;;;;;;4.88;2.70;;;;;;;18.51;67.72;96232.53;5114347;28;20016;-63
2022/06/06 00:25:25;;;;;;;3.47;2.78;;;;;;;18.41;68.82;96233.22;5114174;28;20023;-64
2022/06/06 00:27:51;;;;;;;4.05;2.78;;;;;;;18.40;68.96;96228.03;5114241;28;20035;-64
2022/06/06 00:30:16;;;;;;;2.70;2.40;;;;;;;18.40;68.75;96228.91;5114075;28;20016;-66
2022/06/06 00:35:26;;;;;;;5.85;2.88;;;;;;;18.47;69.27;96225.75;5114439;28;20035;-64
2022/06/06 00:37:52;;;;;;;3.25;2.63;;;;;;;18.49;69.11;96223.84;5113982;28;20040;-65
2022/06/06 00:40:21;;;;;;;5.55;2.85;;;;;;;18.50;69.67;96213.16;5114006;28;20051;-65
2022/06/06 00:42:47;;;;;;;6.97;2.85;;;;;;;18.50;69.69;96213.16;5113806;28;20020;-63
2022/06/06 00:45:26;;;;;;;6.28;3.00;;;;;;;18.50;69.88;96220.25;5113714;27;20030;-65
2022/06/06 00:48:17;;;;;;;4.85;2.88;;;;;;;18.54;70.07;96224.34;5113820;28;20081;-63
2022/06/06 00:50:51;;;;;;;4.57;2.83;;;;;;;18.58;69.83;96235.56;5113901;28;20023;-65
2022/06/06 00:53:22;;;;;;;4.95;2.70;;;;;;;18.59;69.64;96229.28;5113960;28;20028;-64
2022/06/06 00:55:51;;;;;;;4.00;2.92;;;;;;;18.60;69.79;96223.06;5113776;28;20523;-65
2022/06/06 00:58:22;;;;;;;3.75;2.67;;;;;;;18.59;69.91;96224.00;5113645;28;20558;-64
2022/06/06 01:00:50;;;;;;;4.35;2.88;;;;;;;18.60;69.75;96217.75;5113884;28;20031;-64
2022/06/06 01:03:20;;;;;;;4.85;2.75;;;;;;;18.59;69.71;96216.91;5113632;28;20016;-65
2022/06/06 01:05:47;;;;;;;5.43;3.00;;;;;;;18.61;70.31;96212.34;5113701;28;20031;-63
2022/06/06 01:08:15;;;;;;;3.28;2.97;;;;;;;18.60;70.30;96210.63;5113485;28;20023;-64
2022/06/06 01:10:40;;;;;;;3.88;2.60;;;;;;;18.61;70.18;96209.69;5113465;28;20443;-63
2022/06/06 01:13:10;;;;;;;4.95;2.67;;;;;;;18.60;70.23;96212.47;5113734;28;20024;-63
2022/06/06 01:15:51;;;;;;;6.30;3.13;;;;;;;18.54;70.77;96203.16;5113416;28;20146;-63
2022/06/06 01:18:27;;;;;;;7.82;3.08;;;;;;;18.59;70.85;96200.16;5113595;28;20419;-64
2022/06/06 01:20:55;;;;;;;4.57;2.53;;;;;;;18.59;70.77;96193.06;5113669;28;20032;-62
2022/06/06 01:23:55;;;;;;;3.80;3.13;;;;;;;18.61;70.46;96188.50;5117175;28;20012;-63
2022/06/06 01:27:01;;;;;;;3.50;3.00;;;;;;;18.62;70.73;96184.88;5117616;28;20023;-65
2022/06/06 01:29:32;;;;;;;5.13;2.60;;;;;;;18.59;71.10;96184.25;5117744;28;20039;-65
2022/06/06 01:32:03;;;;;;;5.85;3.42;;;;;;;18.56;71.11;96183.56;5117675;27;20031;-63
2022/06/06 01:34:32;;;;;;;5.97;3.20;;;;;;;18.53;70.98;96181.13;5117554;28;20031;-64
2022/06/06 01:36:59;;;;;;;3.75;2.65;;;;;;;18.43;70.44;96173.03;5117484;28;20059;-63
2022/06/06 01:39:28;;;;;;;5.05;3.47;;;;;;;18.39;70.81;96170.75;5117503;28;20027;-65
2022/06/06 01:42:08;;;;;;;7.22;3.25;;;;;;;18.32;70.78;96170.38;5117456;28;20024;-63
2022/06/06 01:44:52;;;;;;;6.53;3.10;;;;;;;18.22;71.73;96169.38;5117447;28;20032;-64
2022/06/06 01:47:27;;;;;;;4.35;3.33;;;;;;;18.08;72.05;96167.72;5115969;28;20122;-64
2022/06/06 01:49:57;;;;;;;3.17;2.88;;;;;;;17.98;72.98;96157.84;5117197;28;20053;-65
2022/06/06 01:52:23;;;;;;;3.13;2.58;;;;;;;17.96;72.68;96154.44;5117259;28;20023;-65
2022/06/06 01:54:53;;;;;;;8.23;2.85;;;;;;;17.93;72.98;96157.31;5117186;28;20118;-63
2022/06/06 01:57:19;;;;;;;9.30;3.15;;;;;;;17.97;72.69;96155.31;5117078;28;20495;-64
2022/06/06 01:59:45;;;;;;;5.00;2.80;;;;;;;18.02;72.59;96156.66;5117069;28;20028;-64
2022/06/06 02:02:11;;;;;;;3.22;2.92;;;;;;;18.06;72.64;96155.44;5117138;28;20024;-63
2022/06/06 02:04:36;;;;;;;4.00;3.00;;;;;;;18.06;72.18;96158.09;5117124;28;20106;-63
2022/06/06 02:07:02;;;;;;;5.38;3.08;;;;;;;18.04;72.32;96146.81;5116752;28;20492;-65
2022/06/06 02:09:31;;;;;;;6.07;3.60;;;;;;;17.98;71.98;96147.25;5116871;27;20484;-64
2022/06/06 02:12:01;;;;;;;4.80;3.20;;;;;;;17.97;72.10;96161.41;5116738;27;20023;-63
2022/06/06 02:14:27;;;;;;;3.08;2.75;;;;;;;17.97;72.49;96157.94;5116803;28;20057;-64
2022/06/06 02:16:53;;;;;;;5.45;2.90;;;;;;;17.97;72.19;96150.84;5116611;28;20094;-63
2022/06/06 02:19:19;;;;;;;4.70;3.15;;;;;;;17.92;72.25;96139.78;5116623;28;20080;-62
2022/06/06 02:21:44;;;;;;;8.80;3.28;;;;;;;17.88;72.65;96141.78;5116512;28;20110;-63
2022/06/06 02:24:10;;;;;;;3.72;3.08;;;;;;;17.89;72.25;96129.41;5116709;28;20026;-64
2022/06/06 02:26:35;;;;;;;5.53;3.05;;;;;;;17.84;72.27;96137.69;5116423;28;20051;-62
2022/06/06 02:29:01;;;;;;;5.55;2.83;;;;;;;17.87;72.13;96139.25;5116465;28;20147;-64
2022/06/06 02:31:28;;;;;;;6.32;3.33;;;;;;;17.87;72.29;96136.59;5116380;28;20499;-64
2022/06/06 02:33:54;;;;;;;5.82;3.10;;;;;;;17.87;72.12;96132.16;5115552;28;20059;-65
2022/06/06 02:36:19;;;;;;;5.00;3.70;;;;;;;17.91;72.34;96124.88;5116302;28;20077;-63
2022/06/06 02:38:45;;;;;;;12.68;3.08;;;;;;;17.96;72.38;96128.00;5116494;28;20019;-65
2022/06/06 02:41:11;;;;;;;5.60;3.03;;;;;;;17.82;72.15;96129.00;5116362;28;20020;-64
2022/06/06 02:43:39;;;;;;;5.22;2.78;;;;;;;17.79;72.43;96131.91;5116179;28;20092;-65
2022/06/06 02:46:10;;;;;;;4.22;3.03;;;;;;;17.81;72.34;96136.13;5116083;28;20036;-63
2022/06/06 02:48:37;;;;;;;4.72;3.05;;;;;;;17.78;72.32;96151.34;5116092;28;20023;-63
2022/06/06 02:51:03;;;;;;;7.93;3.08;;;;;;;17.75;72.48;96156.88;5116165;28;20041;-64
2022/06/06 02:53:30;;;;;;;4.07;2.88;;;;;;;17.79;72.61;96163.66;5116098;28;20027;-64
2022/06/06 02:55:56;;;;;;;6.95;3.25;;;;;;;17.78;72.51;96161.94;5116089;28;20055;-64
2022/06/06 02:58:23;;;;;;;6.68;2.83;;;;;;;17.75;72.64;96160.38;5115947;28;20027;-63
2022/06/06 03:01:00;;;;;;;3.83;2.85;;;;;;;17.78;72.60;96167.22;5115870;28;20032;-63
2022/06/06 03:03:26;;;;;;;3.67;2.88;;;;;;;17.76;72.73;96158.59;5115736;28;20039;-63
2022/06/06 03:05:53;;;;;;;3.70;2.92;;;;;;;17.73;72.73;96166.75;5115819;28;20100;-63
2022/06/06 03:08:35;;;;;;;3.28;3.00;;;;;;;17.79;72.98;96145.13;5115748;28;20115;-64
2022/06/06 03:11:30;;;;;;;5.70;3.13;;;;;;;17.90;73.07;96142.53;5115794;28;20031;-64
2022/06/06 03:14:25;;;;;;;3.05;2.85;;;;;;;17.97;72.79;96144.72;5115906;28;20465;-65
2022/06/06 03:22:59;;;;;;;4.05;3.20;;;;;;;18.11;73.06;96154.28;5115528;28;20096;-63
2022/06/06 03:25:38;;;;;;;4.35;2.75;;;;;;;18.15;72.89;96161.06;5115391;28;20024;-65
2022/06/06 03:28:10;;;;;;;7.93;3.10;;;;;;;18.18;73.08;96166.94;5115602;28;20081;-63
2022/06/06 03:31:00;;;;;;;3.13;2.80;;;;;;;18.23;73.10;96171.91;5115486;28;20520;-64
2022/06/06 03:33:42;;;;;;;4.17;2.90;;;;;;;18.17;73.29;96180.31;5115458;28;20024;-65
2022/06/06 03:36:11;;;;;;;4.07;3.33;;;;;;;18.19;73.57;96187.16;5115174;28;20385;-64
2022/06/06 03:39:00;;;;;;;3.95;3.20;;;;;;;18.19;73.90;96196.94;5115094;28;20054;-65
2022/06/06 03:41:41;;;;;;;3.55;3.25;;;;;;;18.18;74.18;96190.78;5104440;28;20043;-62
2022/06/06 03:44:27;;;;;;;4.20;3.42;;;;;;;18.28;74.81;96200.69;5115227;28;20024;-64
2022/06/06 03:47:14;;;;;;;5.75;3.50;;;;;;;18.35;74.98;96212.50;5072254;28;20408;-64
2022/06/06 03:50:01;;;;;;;12.00;3.60;;;;;;;18.36;75.10;96231.88;5114981;28;20135;-63
2022/06/06 03:52:36;;;;;;;4.38;3.10;;;;;;;18.40;75.32;96265.09;5115008;28;20023;-62
2022/06/06 03:55:33;;;;;;;3.92;3.10;;;;;;;18.37;76.39;96294.47;5115035;28;20034;-63
2022/06/06 03:58:03;;;;;;;4.35;3.95;;;;;;;18.38;78.08;96352.59;5113456;28;20122;-63
2022/06/06 04:00:28;;;;;;;12.47;5.80;;;;;;;18.51;79.89;96360.47;5114780;28;20024;-62
2022/06/06 04:02:55;;;;;;;10.90;5.45;;;;;;;18.50;80.37;96334.97;5114696;28;20260;-63
2022/06/06 04:05:24;;;;;;;21.50;8.20;;;;;;;18.55;81.48;96361.09;5114562;28;20020;-63
2022/06/06 04:07:50;;;;;;;13.35;6.05;;;;;;;18.40;79.85;96366.56;5114733;28;20051;-63
2022/06/06 04:10:20;;;;;;;14.07;4.97;;;;;;;18.36;79.26;96374.84;5114557;28;20425;-63
2022/06/06 04:13:17;;;;;;;14.57;3.83;;;;;;;18.15;80.36;96367.50;5114494;28;20373;-61
2022/06/06 04:16:13;;;;;;;19.00;5.22;;;;;;;18.08;82.44;96382.94;5086145;28;20409;-62
2022/06/06 04:19:20;;;;;;;13.48;4.45;;;;;;;17.94;84.17;96349.50;5114388;28;20549;-62
2022/06/06 04:22:29;;;;;;;10.20;4.78;;;;;;;17.92;84.01;96304.66;5114008;28;20455;-62
2022/06/06 04:24:58;;;;;;;13.25;4.28;;;;;;;17.98;84.16;96279.56;5114139;28;20050;-63
2022/06/06 04:27:45;;;;;;;17.38;5.20;;;;;;;18.05;83.97;96229.66;5113979;28;20031;-63
2022/06/06 04:30:47;;;;;;;10.93;5.10;;;;;;;18.09;84.30;96183.47;5114491;28;20481;-62
2022/06/06 04:33:32;;;;;;;12.23;4.07;;;;;;;18.18;83.71;96196.06;5114120;28;20365;-63
2022/06/06 04:36:25;;;;;;;18.55;4.18;;;;;;;18.27;82.45;96223.66;5113883;28;20118;-62
2022/06/06 04:39:02;;;;;;;12.50;3.55;;;;;;;18.19;81.33;96234.81;5114151;28;20053;-63
2022/06/06 04:41:41;;;;;;;12.32;3.50;;;;;;;18.13;81.53;96252.94;5114018;28;20027;-63
2022/06/06 04:44:18;;;;;;;15.10;3.13;;;;;;;18.20;81.35;96264.78;5113897;28;20110;-62
2022/06/06 04:47:02;;;;;;;13.55;4.03;;;;;;;18.22;80.63;96283.19;5113855;28;20032;-63
2022/06/06 04:49:31;;;;;;;11.40;2.70;;;;;;;18.27;80.57;96303.06;5113980;28;20027;-64
2022/06/06 04:51:59;;;;;;;7.85;1.85;;;;;;;18.10;76.99;96346.66;5113809;28;20016;-62
2022/06/06 04:54:26;;;;;;;3.63;1.75;;;;;;;18.10;77.75;96349.31;5113894;28;20020;-64
2022/06/06 04:56:53;;;;;;;7.70;1.80;;;;;;;18.07;78.95;96352.13;5113430;28;20492;-63
2022/06/06 04:59:21;;;;;;;4.40;1.60;;;;;;;18.04;79.08;96352.34;5113801;28;20106;-63
2022/06/06 05:01:47;;;;;;;5.03;2.10;;;;;;;17.94;80.04;96355.63;5112515;28;20610;-63
2022/06/06 05:04:12;;;;;;;4.85;1.85;;;;;;;17.99;80.50;96349.16;5113700;28;20024;-63
2022/06/06 05:06:44;;;;;;;5.68;1.90;;;;;;;18.01;79.84;96339.34;5105276;28;20501;-63
2022/06/06 05:09:19;;;;;;;4.72;2.13;;;;;;;18.03;80.19;96340.91;5093321;28;20012;-64
2022/06/06 05:12:03;;;;;;;2.28;1.55;;;;;;;18.14;80.27;96324.31;5093236;28;20101;-63
2022/06/06 05:14:48;;;;;;;4.13;1.98;;;;;;;18.16;79.91;96305.66;5093068;28;20389;-63
2022/06/06 05:17:52;;;;;;;4.97;1.98;;;;;;;18.29;79.86;96310.91;5093135;28;20044;-64
2022/06/06 05:20:33;;;;;;;5.28;2.25;;;;;;;18.47;79.09;96307.84;5093236;28;20051;-64
2022/06/06 05:23:37;;;;;;;5.10;2.28;;;;;;;18.58;80.44;96309.72;5093418;28;20032;-63
2022/06/06 05:26:50;;;;;;;4.10;2.15;;;;;;;18.44;80.75;96312.44;5011134;28;20041;-63
2022/06/06 05:29:42;;;;;;;3.30;2.38;;;;;;;18.46;81.53;96320.25;5006115;28;20049;-64
2022/06/06 05:32:26;;;;;;;4.07;2.78;;;;;;;18.44;82.61;96336.25;5090529;28;20462;-64
2022/06/06 05:35:16;;;;;;;6.95;2.63;;;;;;;18.54;83.53;96328.47;5093153;28;20536;-62
2022/06/06 05:38:12;;;;;;;4.88;2.60;;;;;;;18.64;83.69;96326.00;5093021;28;20052;-63
2022/06/06 05:40:43;;;;;;;4.00;2.28;;;;;;;18.73;82.98;96313.88;5092957;28;20042;-64
2022/06/06 05:43:44;;;;;;;5.10;2.50;;;;;;;18.69;82.63;96318.53;5093066;28;20615;-64
2022/06/06 05:46:17;;;;;;;;;;;;;;;18.71;82.30;96333.47;5093284;28;20081;-63
2022/06/06 05:48:53;;;;;;;4.20;2.35;;;;;;;18.65;80.77;96334.78;5092960;28;19919;-63
2022/06/06 05:51:42;;;;;;;7.88;2.35;;;;;;;18.71;81.78;96331.69;5092893;28;20058;-64
2022/06/06 05:54:49;;;;;;;4.40;2.42;;;;;;;18.88;81.70;96338.38;5092788;28;20031;-63
2022/06/06 05:57:26;;;;;;;5.40;2.65;;;;;;;19.02;81.01;96337.31;5092900;28;20032;-63
2022/06/06 06:00:16;;;;;;;3.97;2.33;;;;;;;19.18;82.08;96344.16;5092859;28;20550;-63
2022/06/06 06:03:03;;;;;;;2.73;2.13;;;;;;;19.30;80.88;96334.41;5092808;28;20039;-63
2022/06/06 06:05:44;;;;;;;3.25;1.98;;;;;;;19.48;81.04;96336.59;5092693;28;20268;-64
2022/06/06 06:08:25;;;;;;;;;;;;;;;19.93;80.67;96339.25;5093278;28;20040;-64
2022/06/06 06:11:20;;;;;;;5.18;1.88;;;;;;;20.30;77.96;96343.47;5096478;28;20266;-64
2022/06/06 06:14:10;;;;;;;4.50;2.00;;;;;;;20.61;77.46;96348.06;5096420;28;20119;-64
2022/06/06 06:16:42;;;;;;;5.47;2.38;;;;;;;20.72;73.56;96339.22;5096198;28;20044;-64
2022/06/06 06:19:17;;;;;;;7.32;2.45;;;;;;;20.83;73.69;96341.00;5096274;28;20036;-63
2022/06/06 06:21:50;;;;;;;5.75;2.40;;;;;;;21.37;72.46;96350.78;5096328;28;20469;-64
2022/06/06 06:24:19;;;;;;;6.13;2.55;;;;;;;21.97;71.49;96344.75;5096375;28;20426;-64
2022/06/06 06:26:45;;;;;;;7.00;2.30;;;;;;;22.51;69.62;96352.47;5096112;28;20059;-63
2022/06/06 06:29:11;;;;;;;3.38;1.90;;;;;;;23.02;69.10;96355.06;5096033;28;20020;-64
2022/06/06 06:32:15;;;;;;;5.78;2.33;;;;;;;23.56;66.39;96351.91;5095993;28;20069;-63
2022/06/06 06:34:54;;;;;;;6.32;2.03;;;;;;;24.21;64.25;96352.97;5096164;28;20035;-65
2022/06/06 06:37:49;;;;;;;8.07;3.00;;;;;;;24.77;60.55;96345.84;5096015;28;20060;-64
2022/06/06 06:40:40;;;;;;;3.63;1.80;;;;;;;25.05;61.17;96353.81;5096005;28;20424;-63
2022/06/06 06:43:06;;;;;;;;;;;;;;;25.26;61.17;96336.56;5096356;28;20032;-64
2022/06/06 06:45:44;;;;;;;3.05;1.60;;;;;;;25.57;57.78;96339.63;5095853;28;19914;-64
2022/06/06 06:48:17;;;;;;;2.47;1.60;;;;;;;25.53;56.74;96346.31;5095641;28;20036;-64
2022/06/06 06:50:49;;;;;;;3.28;1.80;;;;;;;25.23;54.46;96340.41;5095632;28;20027;-64
2022/06/06 06:53:39;;;;;;;4.10;2.00;;;;;;;25.10;57.68;96343.47;5095699;28;20028;-64
2022/06/06 06:56:31;;;;;;;4.57;2.30;;;;;;;24.83;58.41;96340.72;5095612;28;20051;-63
2022/06/06 06:59:07;;;;;;;6.82;2.50;;;;;;;24.72;59.16;96338.28;5091455;28;20029;-64
2022/06/06 07:08:32;;;;;;;6.93;2.83;;;;;;;24.96;58.18;96334.16;5095435;28;20481;-64
2022/06/06 07:11:17;;;;;;;4.40;2.70;;;;;;;24.45;56.27;96306.13;5095331;28;20499;-63
2022/06/06 07:13:54;;;;;;;7.50;2.35;;;;;;;24.08;58.99;96305.16;5095222;28;20063;-63
2022/06/06 07:16:23;;;;;;;7.45;2.80;;;;;;;24.21;57.09;96310.22;5094921;28;20036;-63
2022/06/06 07:19:05;;;;;;;2.35;1.95;;;;;;;24.41;57.93;96311.91;5095099;28;20031;-63
2022/06/06 07:21:33;;;;;;;4.65;2.60;;;;;;;24.63;59.03;96323.13;5094900;28;20042;-63
2022/06/06 07:24:03;;;;;;;6.32;2.20;;;;;;;24.68;55.23;96324.34;5095021;28;20028;-64
2022/06/06 07:26:29;;;;;;;6.03;2.92;;;;;;;25.05;57.11;96325.22;5094832;28;20027;-64
2022/06/06 07:28:54;;;;;;;4.95;2.90;;;;;;;25.32;55.74;96333.28;5094785;28;20020;-64
2022/06/06 07:31:26;;;;;;;2.85;2.50;;;;;;;25.66;56.54;96337.88;5094862;28;20050;-63
2022/06/06 07:34:19;;;;;;;4.82;3.22;;;;;;;26.29;59.33;96329.63;5094966;28;20031;-63
2022/06/06 07:37:03;;;;;;;4.03;3.17;;;;;;;26.59;53.46;96335.41;5094766;28;20539;-64
2022/06/06 07:39:44;;;;;;;4.65;3.20;;;;;;;26.64;52.24;96329.53;5094705;28;20032;-63
2022/06/06 07:42:24;;;;;;;5.75;3.35;;;;;;;26.90;53.37;96325.88;5094799;28;20028;-64
2022/06/06 07:45:31;;;;;;;9.65;4.22;;;;;;;26.32;54.54;96329.31;5094693;28;20047;-63
2022/06/06 07:48:12;;;;;;;6.03;4.47;;;;;;;25.86;56.73;96332.28;5022390;28;20117;-62
2022/06/06 07:50:56;;;;;;;6.22;4.45;;;;;;;25.49;54.37;96332.38;5094636;28;20024;-63
2022/06/06 07:53:40;;;;;;;6.15;4.57;;;;;;;25.46;56.83;96319.31;5094447;28;20028;-64
2022/06/06 07:56:20;;;;;;;4.40;4.00;;;;;;;25.69;57.32;96334.03;5094349;28;20027;-64
2022/06/06 07:58:53;;;;;;;4.18;3.78;;;;;;;25.84;55.70;96340.47;5094261;28;20040;-64
2022/06/06 08:01:32;;;;;;;5.03;4.53;;;;;;;25.46;55.34;96329.16;5094291;28;20077;-64
2022/06/06 08:04:30;;;;;;;6.43;4.40;;;;;;;24.80;58.46;96338.34;5094322;28;20028;-63
2022/06/06 08:07:25;;;;;;;4.68;4.22;;;;;;;25.03;58.56;96342.41;5094113;28;20158;-63
2022/06/06 08:09:50;;;;;;;5.32;4.28;;;;;;;25.16;56.99;96336.69;5059513;28;20032;-63
2022/06/06 08:12:36;;;;;;;4.38;3.97;;;;;;;25.54;54.84;96341.75;5094085;28;20111;-63
2022/06/06 08:15:28;;;;;;;5.60;4.45;;;;;;;25.98;54.79;96336.34;5052425;28;20043;-64
2022/06/06 08:18:03;;;;;;;5.07;4.57;;;;;;;26.04;54.98;96350.09;5094010;28;20028;-64
2022/06/06 08:21:00;;;;;;;5.75;4.03;;;;;;;26.20;53.60;96360.03;5094097;28;20465;-64
2022/06/06 08:23:27;;;;;;;11.00;4.10;;;;;;;26.33;53.38;96362.28;5093956;28;20087;-64
2022/06/06 08:25:54;;;;;;;6.47;4.50;;;;;;;26.36;55.23;96359.28;5093784;28;20027;-64
2022/06/06 08:28:21;;;;;;;7.53;4.57;;;;;;;26.42;54.33;96361.31;5093754;28;20099;-64
2022/06/06 08:30:47;;;;;;;7.57;3.60;;;;;;;26.22;51.58;96355.38;5093617;28;20031;-64
2022/06/06 08:33:13;;;;;;;7.82;4.10;;;;;;;26.09;54.29;96359.34;5093215;28;20021;-64
2022/06/06 08:36:03;;;;;;;5.35;3.70;;;;;;;25.86;53.98;96354.53;5093572;28;20107;-64
2022/06/06 08:38:41;;;;;;;8.13;3.50;;;;;;;25.67;55.09;96365.50;5093586;28;20055;-64
2022/06/06 08:41:25;;;;;;;6.32;3.92;;;;;;;25.21;55.86;96377.16;5093543;28;20081;-63
2022/06/06 08:44:16;;;;;;;3.67;3.40;;;;;;;25.09;58.98;96374.75;5093520;28;20039;-63
2022/06/06 08:47:17;;;;;;;4.60;3.88;;;;;;;25.25;55.80;96375.84;5056883;28;20054;-63
2022/06/06 08:52:28;;;;;;;7.00;3.42;;;;;;;25.42;56.45;96376.84;5093709;28;19966;-64
2022/06/06 08:55:21;;;;;;;6.85;3.75;;;;;;;25.61;55.04;96383.84;5093179;28;20052;-64
2022/06/06 08:58:10;;;;;;;6.40;3.53;;;;;;;25.55;57.71;96378.28;5093448;28;20477;-64
2022/06/06 09:01:08;;;;;;;4.85;3.80;;;;;;;25.71;55.84;96370.34;5093299;28;20474;-64
2022/06/06 09:03:55;;;;;;;4.22;3.60;;;;;;;26.02;54.19;96371.69;5048596;28;20439;-63
2022/06/06 09:07:04;;;;;;;8.98;3.90;;;;;;;25.94;52.66;96366.28;5093129;28;20100;-63
2022/06/06 09:10:06;;;;;;;7.13;3.60;;;;;;;25.82;52.51;96373.75;5093229;28;20506;-63
2022/06/06 09:12:59;;;;;;;4.70;3.80;;;;;;;25.71;51.62;96378.38;5093157;28;20028;-63
2022/06/06 09:15:43;;;;;;;3.63;3.33;;;;;;;25.36;51.55;96370.28;5092928;28;20076;-64
2022/06/06 09:18:29;;;;;;;4.07;3.70;;;;;;;25.30;54.82;96384.28;5093138;28;20438;-64
2022/06/06 09:21:12;;;;;;;5.53;3.78;;;;;;;25.20;54.57;96389.69;5093137;28;20116;-64
2022/06/06 09:24:02;;;;;;;4.60;3.38;;;;;;;24.74;56.76;96395.94;5093266;28;20473;-63
2022/06/06 09:26:58;;;;;;;8.50;3.65;;;;;;;24.35;58.36;96397.03;5093139;28;20478;-63
2022/06/06 09:29:45;;;;;;;8.18;3.90;;;;;;;24.16;59.29;96387.28;5093033;28;20032;-64
2022/06/06 09:32:46;;;;;;;5.85;3.20;;;;;;;24.22;59.89;96377.81;5093034;28;20036;-63
2022/06/06 09:35:33;;;;;;;5.93;3.67;;;;;;;24.52;58.36;96377.66;5092903;28;20137;-64
2022/06/06 09:38:39;;;;;;;7.10;3.00;;;;;;;24.81;57.10;96368.59;5093103;28;20063;-64
2022/06/06 09:41:25;;;;;;;4.10;3.05;;;;;;;24.94;57.85;96373.59;5054922;28;20125;-64
2022/06/06 09:44:12;;;;;;;6.65;3.38;;;;;;;24.81;57.52;96373.94;5095756;28;20020;-64
2022/06/06 09:46:59;;;;;;;5.03;3.38;;;;;;;24.74;56.48;96373.69;5096973;28;20373;-64
2022/06/06 09:49:44;;;;;;;11.43;3.42;;;;;;;24.58;57.61;96369.03;5096823;28;20038;-64
2022/06/06 09:52:28;;;;;;;5.20;3.33;;;;;;;24.90;58.54;96364.19;5096951;28;20059;-64
2022/06/06 10:01:33;;;;;;;3.33;3.00;;;;;;;25.07;57.75;96354.50;5096733;28;20038;-64
2022/06/06 10:04:01;;;;;;;4.97;2.83;;;;;;;24.97;57.79;96362.59;5096538;28;20054;-63
2022/06/06 10:06:45;;;;;;;2.60;2.40;;;;;;;25.24;56.72;96360.81;5096479;28;20020;-64
2022/06/06 10:09:39;;;;;;;3.67;2.67;;;;;;;25.38;54.79;96355.88;5096544;28;20057;-64
2022/06/06 10:12:36;;;;;;;4.25;2.42;;;;;;;25.63;54.91;96373.00;5061790;28;20086;-64
2022/06/06 10:15:19;;;;;;;2.92;2.45;;;;;;;25.66;52.47;96371.81;5096286;28;20132;-64
2022/06/06 10:18:02;;;;;;;8.20;2.60;;;;;;;25.10;53.90;96376.41;5096320;28;20032;-63
2022/06/06 10:20:46;;;;;;;4.03;2.40;;;;;;;25.12;56.89;96373.59;5096295;28;20024;-64
2022/06/06 10:23:32;;;;;;;6.72;2.63;;;;;;;25.20;55.90;96372.81;5096181;28;20114;-63
2022/06/06 10:26:20;;;;;;;5.35;2.42;;;;;;;25.29;57.36;96365.69;5096224;28;20024;-63
2022/06/06 10:28:55;;;;;;;2.85;2.45;;;;;;;25.09;54.26;96371.22;5096212;28;20036;-63
2022/06/06 10:31:53;;;;;;;2.65;2.45;;;;;;;24.84;54.29;96370.97;5094718;28;20027;-63
2022/06/06 10:34:37;;;;;;;6.50;2.50;;;;;;;24.40;55.70;96377.88;5079859;28;20055;-64
2022/06/06 10:37:22;;;;;;;3.83;2.60;;;;;;;24.15;57.27;96377.59;5096023;28;20103;-63
2022/06/06 10:40:16;;;;;;;8.32;2.58;;;;;;;24.03;57.55;96368.91;5096016;28;20020;-63
2022/06/06 10:43:08;;;;;;;8.27;2.58;;;;;;;23.96;56.66;96373.16;5095817;28;20043;-63
2022/06/06 10:45:48;;;;;;;2.58;2.38;;;;;;;24.04;57.90;96370.56;5081588;28;20513;-63
2022/06/06 10:48:40;;;;;;;2.47;2.28;;;;;;;24.06;57.45;96386.44;5095645;28;20077;-63
2022/06/06 10:54:22;;;;;;;12.95;2.30;;;;;;;23.71;59.52;96370.97;5095316;28;20051;-64
2022/06/06 10:57:03;;;;;;;2.28;1.92;;;;;;;23.71;59.10;96365.63;5095653;28;20097;-64
2022/06/06 10:59:31;;;;;;;;;;;;;;;23.58;58.84;96376.63;5096089;28;20059;-63
2022/06/06 11:02:19;;;;;;;5.07;2.03;;;;;;;23.83;60.19;96385.00;5095600;28;19912;-64
2022/06/06 11:05:12;;;;;;;4.72;1.98;;;;;;;24.08;58.36;96390.66;5095566;28;20032;-64
2022/06/06 11:07:48;;;;;;;4.63;1.65;;;;;;;24.08;58.15;96390.66;5095226;28;20016;-64
2022/06/06 11:10:49;;;;;;;5.10;2.10;;;;;;;24.08;59.05;96381.81;5095282;28;20385;-63
2022/06/06 11:13:40;;;;;;;3.35;2.10;;;;;;;24.46;60.57;96395.13;5095150;28;20119;-64
2022/06/06 11:16:24;;;;;;;2.60;1.70;;;;;;;24.69;55.97;96406.28;5094929;28;20056;-64
2022/06/06 11:19:08;;;;;;;3.03;1.83;;;;;;;24.65;57.64;96414.72;5095388;28;20056;-63
2022/06/06 11:22:04;;;;;;;4.72;1.70;;;;;;;24.84;55.70;96416.44;5095151;28;20028;-65
2022/06/06 11:24:54;;;;;;;3.92;1.67;;;;;;;25.07;57.43;96406.16;5095150;28;20047;-64
2022/06/06 11:27:29;;;;;;;;;;;;;;;25.16;53.58;96407.06;5095372;28;20373;-64
2022/06/06 11:30:17;;;;;;;3.17;2.30;;;;;;;25.20;55.42;96397.72;5094909;28;20082;-64
2022/06/06 11:32:45;;;;;;;2.10;1.90;;;;;;;25.36;56.14;96398.88;5094806;28;20036;-64
2022/06/06 11:35:23;;;;;;;3.40;1.90;;;;;;;25.26;55.64;96352.63;5094915;28;20039;-64
2022/06/06 11:38:20;;;;;;;1.90;1.80;;;;;;;25.68;55.26;96402.81;5094767;28;20067;-64
2022/06/06 11:40:58;;;;;;;3.13;1.60;;;;;;;25.82;56.67;96395.19;5094724;28;20030;-64
2022/06/06 11:44:01;;;;;;;3.38;2.30;;;;;;;25.87;53.67;96392.88;5094622;28;20063;-64
2022/06/06 11:46:47;;;;;;;3.05;2.17;;;;;;;25.84;53.33;96379.81;5094402;28;20024;-64
2022/06/06 11:49:54;;;;;;;2.20;2.00;;;;;;;25.68;52.66;96389.44;5080165;28;20083;-64
2022/06/06 11:52:44;;;;;;;5.55;2.20;;;;;;;25.61;53.64;96380.31;5066744;28;20405;-64
2022/06/06 11:55:47;;;;;;;4.28;1.92;;;;;;;25.35;53.55;96335.63;5094591;28;20062;-64
2022/06/06 11:58:50;;;;;;;4.35;1.88;;;;;;;25.76;54.71;96385.13;5094269;28;20032;-64
2022/06/06 12:01:36;;;;;;;2.45;1.85;;;;;;;25.80;55.83;96381.97;5094331;28;20094;-64
2022/06/06 12:04:02;;;;;;;5.03;2.33;;;;;;;25.71;55.02;96393.63;5094590;28;20024;-65
2022/06/06 12:06:55;;;;;;;5.03;2.67;;;;;;;25.48;53.29;96386.91;5093303;28;20035;-64
2022/06/06 12:09:29;;;;;;;10.18;2.05;;;;;;;25.50;56.55;96386.78;5094133;28;20415;-64
2022/06/06 12:12:06;;;;;;;2.42;2.22;;;;;;;25.45;56.50;96379.19;5094217;28;20037;-64
2022/06/06 12:14:54;;;;;;;2.70;2.10;;;;;;;25.45;56.69;96376.53;5094156;28;20097;-64
2022/06/06 12:17:44;;;;;;;4.80;2.28;;;;;;;25.37;55.54;96373.78;5093913;28;20064;-64
2022/06/06 12:20:31;;;;;;;8.37;2.20;;;;;;;25.30;56.11;96381.59;5093943;28;20107;-64
2022/06/06 12:23:19;;;;;;;4.05;2.13;;;;;;;25.23;55.83;96375.19;5093769;28;20261;-64
2022/06/06 12:26:23;;;;;;;3.00;2.22;;;;;;;25.29;55.90;96373.72;5093850;28;20034;-64
2022/06/06 12:29:15;;;;;;;6.95;2.28;;;;;;;25.23;55.72;96364.47;5093778;28;20047;-64
2022/06/06 12:32:16;;;;;;;7.50;2.28;;;;;;;25.26;55.98;96361.50;5062278;28;20504;-64
2022/06/06 12:35:04;;;;;;;6.05;2.28;;;;;;;25.39;55.36;96362.91;5093780;28;20016;-64
2022/06/06 12:38:02;;;;;;;2.80;2.50;;;;;;;25.33;55.27;96370.59;5093791;28;20377;-64
2022/06/06 12:40:52;;;;;;;7.72;2.58;;;;;;;25.06;54.73;96372.38;5093664;28;20028;-64
2022/06/06 12:43:24;;;;;;;;;;;;;;;24.82;55.59;96357.75;5094096;28;20028;-64
2022/06/06 12:46:37;;;;;;;5.75;2.17;;;;;;;24.90;56.32;96369.56;5093371;28;19912;-64
2022/06/06 12:49:17;;;;;;;4.13;2.80;;;;;;;24.81;54.39;96363.25;5048677;28;20032;-64
2022/06/06 12:52:05;;;;;;;4.05;2.67;;;;;;;24.78;54.98;96360.88;5093628;28;20492;-64
2022/06/06 12:57:37;;;;;;;2.85;2.63;;;;;;;24.69;56.94;96363.50;5093489;28;20069;-63
2022/06/06 13:00:12;;;;;;;4.18;2.55;;;;;;;24.69;58.06;96352.78;5093364;28;20074;-63
2022/06/06 13:03:06;;;;;;;2.72;2.38;;;;;;;24.65;57.76;96358.59;5093315;28;20024;-64
2022/06/06 13:05:49;;;;;;;2.85;2.38;;;;;;;24.72;58.60;96360.47;5093293;28;20115;-64